RYR449 EGGP-EIDW
Flight info
| Callsign | RYR449 |
|---|---|
| Flight time | 0h 31m |
| Altitude | 24000 |
| Route | WAL L10 PENIL L28 LELDO M145 BAGSO BAGSO3R |
| Aircraft | B738/M-SDE3FGIJ1LRWYZ/SB1 |
Departure
| Time | 2026-05-03 22:26 |
|---|---|
| Airport | Liverpool John Lennon Airport (EGGP) |
Arrival
| Time | 2026-05-03 22:58 |
|---|---|
| Airport | Dublin Airport (EIDW) |
| Time | Latitude | Longitude | Altitude | Speed | Heading |
|---|---|---|---|---|---|
| 2026-05-03 22:01 | 53.33658 | -2.85586 | 85 ft | 0 kts | 356° |
| 2026-05-03 22:19 | 53.33652 | -2.85586 | 88 ft | 4 kts | 351° |
| 2026-05-03 22:19 | 53.33631 | -2.85580 | 84 ft | 4 kts | 352° |
| 2026-05-03 22:19 | 53.33613 | -2.85565 | 87 ft | 4 kts | 279° |
| 2026-05-03 22:19 | 53.33613 | -2.85523 | 88 ft | 4 kts | 265° |
| 2026-05-03 22:20 | 53.33614 | -2.85507 | 86 ft | 0 kts | 265° |
| 2026-05-03 22:22 | 53.33611 | -2.85569 | 85 ft | 12 kts | 265° |
| 2026-05-03 22:22 | 53.33618 | -2.85707 | 86 ft | 8 kts | 278° |
| 2026-05-03 22:23 | 53.33603 | -2.85801 | 85 ft | 11 kts | 259° |
| 2026-05-03 22:23 | 53.33565 | -2.85935 | 85 ft | 14 kts | 190° |
| 2026-05-03 22:23 | 53.33484 | -2.85980 | 87 ft | 13 kts | 255° |
| 2026-05-03 22:23 | 53.33475 | -2.86143 | 83 ft | 16 kts | 267° |
| 2026-05-03 22:24 | 53.33465 | -2.86361 | 83 ft | 20 kts | 265° |
| 2026-05-03 22:24 | 53.33459 | -2.86507 | 81 ft | 20 kts | 265° |
| 2026-05-03 22:24 | 53.33437 | -2.86679 | 68 ft | 11 kts | 232° |
| 2026-05-03 22:24 | 53.33412 | -2.86712 | 71 ft | 0 kts | 214° |
| 2026-05-03 22:25 | 53.33406 | -2.86718 | 72 ft | 4 kts | 208° |
| 2026-05-03 22:25 | 53.33344 | -2.86715 | 71 ft | 12 kts | 156° |
| 2026-05-03 22:25 | 53.33288 | -2.86619 | 73 ft | 9 kts | 93° |
| 2026-05-03 22:25 | 53.33294 | -2.86502 | 74 ft | 17 kts | 85° |
| 2026-05-03 22:26 | 53.33323 | -2.85861 | 69 ft | 93 kts | 85° |
| 2026-05-03 22:26 | 53.33382 | -2.84394 | 137 ft | 152 kts | 85° |
| 2026-05-03 22:26 | 53.33459 | -2.82595 | 945 ft | 155 kts | 82° |
| 2026-05-03 22:26 | 53.33576 | -2.80788 | 1830 ft | 162 kts | 81° |
| 2026-05-03 22:27 | 53.33982 | -2.78848 | 2257 ft | 192 kts | 55° |
| 2026-05-03 22:27 | 53.35013 | -2.77391 | 2957 ft | 200 kts | 23° |
| 2026-05-03 22:27 | 53.36433 | -2.77203 | 3500 ft | 223 kts | 346° |
| 2026-05-03 22:27 | 53.37787 | -2.78777 | 3843 ft | 258 kts | 306° |
| 2026-05-03 22:28 | 53.38311 | -2.81687 | 4776 ft | 269 kts | 273° |
| 2026-05-03 22:28 | 53.38290 | -2.84839 | 5843 ft | 271 kts | 271° |
| 2026-05-03 22:28 | 53.38278 | -2.88016 | 6807 ft | 275 kts | 272° |
| 2026-05-03 22:28 | 53.38317 | -2.91229 | 7797 ft | 276 kts | 273° |
| 2026-05-03 22:29 | 53.38460 | -2.94437 | 8748 ft | 279 kts | 284° |
| 2026-05-03 22:29 | 53.39201 | -2.97441 | 9702 ft | 281 kts | 297° |
| 2026-05-03 22:29 | 53.40116 | -3.00371 | 10488 ft | 290 kts | 297° |
| 2026-05-03 22:29 | 53.41099 | -3.03503 | 10727 ft | 318 kts | 297° |
| 2026-05-03 22:30 | 53.42153 | -3.06902 | 11124 ft | 336 kts | 297° |
| 2026-05-03 22:30 | 53.43230 | -3.10435 | 11758 ft | 343 kts | 297° |
| 2026-05-03 22:30 | 53.44313 | -3.14028 | 11940 ft | 346 kts | 297° |
| 2026-05-03 22:30 | 53.45397 | -3.17661 | 12205 ft | 352 kts | 296° |
| 2026-05-03 22:31 | 53.46492 | -3.21357 | 13082 ft | 354 kts | 296° |
| 2026-05-03 22:31 | 53.47584 | -3.25061 | 14004 ft | 355 kts | 296° |
| 2026-05-03 22:31 | 53.48685 | -3.28806 | 14745 ft | 360 kts | 296° |
| 2026-05-03 22:31 | 53.49797 | -3.32602 | 15490 ft | 364 kts | 296° |
| 2026-05-03 22:32 | 53.50919 | -3.36438 | 16246 ft | 368 kts | 296° |
| 2026-05-03 22:32 | 53.52051 | -3.40318 | 16999 ft | 372 kts | 296° |
| 2026-05-03 22:32 | 53.53195 | -3.44244 | 17739 ft | 376 kts | 296° |
| 2026-05-03 22:32 | 53.54348 | -3.48208 | 18437 ft | 380 kts | 296° |
| 2026-05-03 22:33 | 53.55514 | -3.52223 | 19067 ft | 384 kts | 296° |
| 2026-05-03 22:33 | 53.56690 | -3.56279 | 19710 ft | 387 kts | 296° |
| 2026-05-03 22:33 | 53.57875 | -3.60375 | 20341 ft | 391 kts | 296° |
| 2026-05-03 22:33 | 53.59069 | -3.64508 | 20974 ft | 395 kts | 296° |
| 2026-05-03 22:34 | 53.60271 | -3.68678 | 21617 ft | 397 kts | 296° |
| 2026-05-03 22:34 | 53.61474 | -3.72856 | 22425 ft | 395 kts | 296° |
| 2026-05-03 22:34 | 53.62666 | -3.77007 | 23257 ft | 393 kts | 296° |
| 2026-05-03 22:34 | 53.63858 | -3.81161 | 23830 ft | 395 kts | 296° |
| 2026-05-03 22:35 | 53.65050 | -3.85325 | 23952 ft | 393 kts | 296° |
| 2026-05-03 22:35 | 53.66225 | -3.89436 | 23971 ft | 386 kts | 296° |
| 2026-05-03 22:35 | 53.67383 | -3.93496 | 23980 ft | 383 kts | 296° |
| 2026-05-03 22:35 | 53.68532 | -3.97526 | 23987 ft | 381 kts | 296° |
| 2026-05-03 22:36 | 53.69675 | -4.01546 | 23989 ft | 379 kts | 295° |
| 2026-05-03 22:36 | 53.70802 | -4.05566 | 23983 ft | 379 kts | 293° |
| 2026-05-03 22:36 | 53.71612 | -4.09788 | 23983 ft | 378 kts | 282° |
| 2026-05-03 22:36 | 53.71963 | -4.14173 | 24000 ft | 378 kts | 274° |
| 2026-05-03 22:37 | 53.72117 | -4.18600 | 23991 ft | 378 kts | 273° |
| 2026-05-03 22:37 | 53.72251 | -4.23051 | 23984 ft | 380 kts | 273° |
| 2026-05-03 22:37 | 53.72392 | -4.27518 | 23992 ft | 382 kts | 274° |
| 2026-05-03 22:37 | 53.72545 | -4.31999 | 23990 ft | 384 kts | 274° |
| 2026-05-03 22:38 | 53.72709 | -4.36505 | 23992 ft | 385 kts | 274° |
| 2026-05-03 22:38 | 53.72873 | -4.40997 | 23772 ft | 381 kts | 274° |
| 2026-05-03 22:38 | 53.73034 | -4.45419 | 23530 ft | 374 kts | 274° |
| 2026-05-03 22:38 | 53.73189 | -4.49780 | 23245 ft | 369 kts | 274° |
| 2026-05-03 22:39 | 53.73340 | -4.54074 | 22964 ft | 364 kts | 274° |
| 2026-05-03 22:39 | 53.73488 | -4.58332 | 22689 ft | 363 kts | 274° |
| 2026-05-03 22:39 | 53.73635 | -4.62579 | 22424 ft | 362 kts | 274° |
| 2026-05-03 22:39 | 53.73780 | -4.66811 | 22153 ft | 361 kts | 274° |
| 2026-05-03 22:40 | 53.73923 | -4.71037 | 21890 ft | 360 kts | 274° |
| 2026-05-03 22:40 | 53.74064 | -4.75194 | 21627 ft | 359 kts | 274° |
| 2026-05-03 22:40 | 53.74204 | -4.79410 | 21367 ft | 359 kts | 274° |
| 2026-05-03 22:40 | 53.74342 | -4.83618 | 21108 ft | 359 kts | 274° |
| 2026-05-03 22:41 | 53.74479 | -4.87818 | 20829 ft | 357 kts | 274° |
| 2026-05-03 22:41 | 53.74614 | -4.91969 | 20511 ft | 353 kts | 274° |
| 2026-05-03 22:41 | 53.74747 | -4.96098 | 20133 ft | 350 kts | 274° |
| 2026-05-03 22:41 | 53.74879 | -5.00192 | 19781 ft | 348 kts | 274° |
| 2026-05-03 22:42 | 53.75008 | -5.04263 | 19423 ft | 346 kts | 274° |
| 2026-05-03 22:42 | 53.75134 | -5.08315 | 19065 ft | 345 kts | 274° |
| 2026-05-03 22:42 | 53.75204 | -5.12354 | 18691 ft | 344 kts | 268° |
| 2026-05-03 22:42 | 53.74872 | -5.16366 | 18164 ft | 349 kts | 256° |
| 2026-05-03 22:43 | 53.74135 | -5.20253 | 17685 ft | 346 kts | 251° |
| 2026-05-03 22:43 | 53.73336 | -5.24073 | 17278 ft | 344 kts | 251° |
| 2026-05-03 22:43 | 53.72539 | -5.27870 | 16894 ft | 342 kts | 252° |
| 2026-05-03 22:43 | 53.71754 | -5.31643 | 16536 ft | 339 kts | 252° |
| 2026-05-03 22:44 | 53.70983 | -5.35389 | 16203 ft | 336 kts | 252° |
| 2026-05-03 22:44 | 53.70224 | -5.39106 | 15859 ft | 334 kts | 252° |
| 2026-05-03 22:44 | 53.69471 | -5.42795 | 15516 ft | 332 kts | 252° |
| 2026-05-03 22:44 | 53.68721 | -5.46462 | 15173 ft | 330 kts | 252° |
| 2026-05-03 22:45 | 53.67978 | -5.50108 | 14847 ft | 327 kts | 253° |
| 2026-05-03 22:45 | 53.67396 | -5.53775 | 14657 ft | 320 kts | 259° |
| 2026-05-03 22:45 | 53.66957 | -5.57428 | 14371 ft | 317 kts | 261° |
| 2026-05-03 22:45 | 53.66559 | -5.61071 | 14048 ft | 315 kts | 261° |
| 2026-05-03 22:46 | 53.66168 | -5.64704 | 13719 ft | 315 kts | 262° |
| 2026-05-03 22:46 | 53.65774 | -5.68328 | 13338 ft | 314 kts | 261° |
| 2026-05-03 22:46 | 53.65376 | -5.71939 | 12997 ft | 313 kts | 261° |
| 2026-05-03 22:46 | 53.64974 | -5.75534 | 12655 ft | 311 kts | 261° |
| 2026-05-03 22:47 | 53.64570 | -5.79111 | 12314 ft | 310 kts | 261° |
| 2026-05-03 22:47 | 53.64164 | -5.82674 | 11964 ft | 309 kts | 260° |
| 2026-05-03 22:47 | 53.63759 | -5.86216 | 11646 ft | 308 kts | 261° |
| 2026-05-03 22:47 | 53.63353 | -5.89748 | 11318 ft | 306 kts | 260° |
| 2026-05-03 22:48 | 53.62947 | -5.93264 | 10986 ft | 305 kts | 260° |
| 2026-05-03 22:48 | 53.62541 | -5.96769 | 10662 ft | 304 kts | 259° |
| 2026-05-03 22:48 | 53.62135 | -6.00256 | 10336 ft | 303 kts | 260° |
| 2026-05-03 22:48 | 53.61732 | -6.03717 | 10151 ft | 298 kts | 260° |
| 2026-05-03 22:49 | 53.61333 | -6.07131 | 9987 ft | 298 kts | 260° |
| 2026-05-03 22:49 | 53.60929 | -6.10580 | 9651 ft | 302 kts | 259° |
| 2026-05-03 22:49 | 53.60524 | -6.14027 | 9337 ft | 299 kts | 259° |
| 2026-05-03 22:49 | 53.60121 | -6.17454 | 9016 ft | 297 kts | 259° |
| 2026-05-03 22:50 | 53.59719 | -6.20850 | 8695 ft | 295 kts | 260° |
| 2026-05-03 22:50 | 53.59320 | -6.24224 | 8386 ft | 293 kts | 260° |
| 2026-05-03 22:50 | 53.58922 | -6.27569 | 8068 ft | 288 kts | 260° |
| 2026-05-03 22:50 | 53.58535 | -6.30823 | 7746 ft | 280 kts | 260° |
| 2026-05-03 22:51 | 53.58154 | -6.34017 | 7351 ft | 276 kts | 260° |
| 2026-05-03 22:51 | 53.57784 | -6.37114 | 6980 ft | 272 kts | 260° |
| 2026-05-03 22:51 | 53.57413 | -6.40206 | 6620 ft | 268 kts | 260° |
| 2026-05-03 22:51 | 53.57048 | -6.43252 | 6266 ft | 263 kts | 260° |
| 2026-05-03 22:52 | 53.56681 | -6.46285 | 5890 ft | 259 kts | 258° |
| 2026-05-03 22:52 | 53.55918 | -6.48961 | 5459 ft | 252 kts | 224° |
| 2026-05-03 22:52 | 53.54442 | -6.50270 | 5094 ft | 235 kts | 188° |
| 2026-05-03 22:52 | 53.52882 | -6.50628 | 4743 ft | 220 kts | 182° |
| 2026-05-03 22:53 | 53.51405 | -6.50826 | 4343 ft | 212 kts | 181° |
| 2026-05-03 22:53 | 53.49962 | -6.51019 | 3940 ft | 205 kts | 181° |
| 2026-05-03 22:53 | 53.48562 | -6.51218 | 3545 ft | 199 kts | 181° |
| 2026-05-03 22:53 | 53.47205 | -6.51418 | 3185 ft | 192 kts | 181° |
| 2026-05-03 22:54 | 53.45950 | -6.51154 | 2886 ft | 172 kts | 142° |
| 2026-05-03 22:54 | 53.45321 | -6.49643 | 2829 ft | 159 kts | 102° |
| 2026-05-03 22:54 | 53.45040 | -6.47826 | 2590 ft | 161 kts | 98° |
| 2026-05-03 22:54 | 53.44810 | -6.46003 | 2387 ft | 158 kts | 97° |
| 2026-05-03 22:55 | 53.44644 | -6.44205 | 2157 ft | 154 kts | 93° |
| 2026-05-03 22:55 | 53.44530 | -6.42431 | 1961 ft | 154 kts | 92° |
| 2026-05-03 22:55 | 53.44426 | -6.40630 | 1767 ft | 156 kts | 93° |
| 2026-05-03 22:55 | 53.44324 | -6.38846 | 1523 ft | 149 kts | 92° |
| 2026-05-03 22:56 | 53.44228 | -6.37159 | 1353 ft | 145 kts | 92° |
| 2026-05-03 22:56 | 53.44135 | -6.35479 | 1134 ft | 146 kts | 92° |
| 2026-05-03 22:56 | 53.44039 | -6.33780 | 945 ft | 147 kts | 93° |
| 2026-05-03 22:56 | 53.43941 | -6.32082 | 743 ft | 145 kts | 92° |
| 2026-05-03 22:57 | 53.43852 | -6.30421 | 531 ft | 142 kts | 92° |
| 2026-05-03 22:57 | 53.43757 | -6.28766 | 319 ft | 144 kts | 92° |
| 2026-05-03 22:57 | 53.43659 | -6.27102 | 214 ft | 139 kts | 94° |
| 2026-05-03 22:57 | 53.43588 | -6.25725 | 217 ft | 97 kts | 95° |
| 2026-05-03 22:58 | 53.43541 | -6.24855 | 212 ft | 53 kts | 95° |
| 2026-05-03 22:58 | 53.43517 | -6.24581 | 221 ft | 12 kts | 124° |
| 2026-05-03 22:58 | 53.43421 | -6.24558 | 211 ft | 16 kts | 185° |
| 2026-05-03 22:58 | 53.43347 | -6.24470 | 210 ft | 15 kts | 102° |
| 2026-05-03 22:59 | 53.43268 | -6.24408 | 214 ft | 14 kts | 184° |
| 2026-05-03 22:59 | 53.43190 | -6.24474 | 210 ft | 14 kts | 264° |
| 2026-05-03 22:59 | 53.43196 | -6.24627 | 210 ft | 13 kts | 273° |
| 2026-05-03 22:59 | 53.43186 | -6.24791 | 210 ft | 16 kts | 278° |
| 2026-05-03 23:00 | 53.43196 | -6.24971 | 210 ft | 15 kts | 275° |
| 2026-05-03 23:00 | 53.43202 | -6.25120 | 213 ft | 10 kts | 258° |
| 2026-05-03 23:00 | 53.43140 | -6.25152 | 210 ft | 9 kts | 185° |
| 2026-05-03 23:00 | 53.43131 | -6.25153 | 218 ft | 0 kts | 185° |